sensor_id;sensor_type;location;lat;lon;timestamp;temperature;humidity
42097;DHT22;27754;45.414;11.084;2023-08-21T00:01:41;26.10;71.50
42097;DHT22;27754;45.414;11.084;2023-08-21T00:04:08;26.00;71.90
42097;DHT22;27754;45.414;11.084;2023-08-21T00:06:36;26.00;71.70
42097;DHT22;27754;45.414;11.084;2023-08-21T00:09:03;26.00;71.20
42097;DHT22;27754;45.414;11.084;2023-08-21T00:11:30;26.00;71.20
42097;DHT22;27754;45.414;11.084;2023-08-21T00:13:57;26.00;71.60
42097;DHT22;27754;45.414;11.084;2023-08-21T00:16:24;25.90;71.90
42097;DHT22;27754;45.414;11.084;2023-08-21T00:18:53;25.80;72.20
42097;DHT22;27754;45.414;11.084;2023-08-21T00:21:20;25.80;72.20
42097;DHT22;27754;45.414;11.084;2023-08-21T00:23:47;25.70;72.10
42097;DHT22;27754;45.414;11.084;2023-08-21T00:26:14;25.70;72.10
42097;DHT22;27754;45.414;11.084;2023-08-21T00:28:41;25.70;72.10
42097;DHT22;27754;45.414;11.084;2023-08-21T00:31:09;25.70;72.10
42097;DHT22;27754;45.414;11.084;2023-08-21T00:33:37;25.70;72.20
42097;DHT22;27754;45.414;11.084;2023-08-21T00:36:04;25.70;72.10
42097;DHT22;27754;45.414;11.084;2023-08-21T00:38:31;25.70;72.20
42097;DHT22;27754;45.414;11.084;2023-08-21T00:40:58;25.70;71.80
42097;DHT22;27754;45.414;11.084;2023-08-21T00:43:25;25.70;71.50
42097;DHT22;27754;45.414;11.084;2023-08-21T00:45:52;25.80;71.40
42097;DHT22;27754;45.414;11.084;2023-08-21T00:48:20;25.80;71.30
42097;DHT22;27754;45.414;11.084;2023-08-21T00:50:47;25.80;71.00
42097;DHT22;27754;45.414;11.084;2023-08-21T00:53:14;25.70;71.00
42097;DHT22;27754;45.414;11.084;2023-08-21T00:55:43;25.70;70.80
42097;DHT22;27754;45.414;11.084;2023-08-21T00:58:10;25.70;71.20
42097;DHT22;27754;45.414;11.084;2023-08-21T01:00:45;25.70;71.40
42097;DHT22;27754;45.414;11.084;2023-08-21T01:03:14;25.70;72.20
42097;DHT22;27754;45.414;11.084;2023-08-21T01:05:41;25.60;71.70
42097;DHT22;27754;45.414;11.084;2023-08-21T01:08:34;25.50;72.20
42097;DHT22;27754;45.414;11.084;2023-08-21T01:11:11;25.60;70.90
42097;DHT22;27754;45.414;11.084;2023-08-21T01:13:50;25.70;70.30
42097;DHT22;27754;45.414;11.084;2023-08-21T01:16:22;25.70;70.10
42097;DHT22;27754;45.414;11.084;2023-08-21T01:18:52;25.70;69.80
42097;DHT22;27754;45.414;11.084;2023-08-21T01:21:22;25.60;69.70
42097;DHT22;27754;45.414;11.084;2023-08-21T01:23:49;25.60;69.40
42097;DHT22;27754;45.414;11.084;2023-08-21T01:26:16;25.60;69.40
42097;DHT22;27754;45.414;11.084;2023-08-21T01:28:43;25.60;69.60
42097;DHT22;27754;45.414;11.084;2023-08-21T01:33:50;25.60;70.10
42097;DHT22;27754;45.414;11.084;2023-08-21T01:36:17;25.60;69.80
42097;DHT22;27754;45.414;11.084;2023-08-21T01:38:45;25.50;69.90
42097;DHT22;27754;45.414;11.084;2023-08-21T01:41:13;25.50;69.90
42097;DHT22;27754;45.414;11.084;2023-08-21T01:43:40;25.50;70.00
42097;DHT22;27754;45.414;11.084;2023-08-21T01:46:08;25.50;70.00
42097;DHT22;27754;45.414;11.084;2023-08-21T01:48:35;25.60;70.10
42097;DHT22;27754;45.414;11.084;2023-08-21T01:51:03;25.60;70.00
42097;DHT22;27754;45.414;11.084;2023-08-21T01:53:30;25.60;69.30
42097;DHT22;27754;45.414;11.084;2023-08-21T01:55:57;25.70;69.30
42097;DHT22;27754;45.414;11.084;2023-08-21T01:58:24;25.60;69.40
42097;DHT22;27754;45.414;11.084;2023-08-21T02:00:51;25.50;70.70
42097;DHT22;27754;45.414;11.084;2023-08-21T02:03:18;25.30;71.40
42097;DHT22;27754;45.414;11.084;2023-08-21T02:05:45;25.30;71.10
42097;DHT22;27754;45.414;11.084;2023-08-21T02:08:13;25.30;70.50
42097;DHT22;27754;45.414;11.084;2023-08-21T02:10:50;25.40;69.80
42097;DHT22;27754;45.414;11.084;2023-08-21T02:13:18;25.50;69.90
42097;DHT22;27754;45.414;11.084;2023-08-21T02:15:46;25.50;70.00
42097;DHT22;27754;45.414;11.084;2023-08-21T02:18:13;25.50;70.20
42097;DHT22;27754;45.414;11.084;2023-08-21T02:20:40;25.50;70.40
42097;DHT22;27754;45.414;11.084;2023-08-21T02:23:09;25.50;70.60
42097;DHT22;27754;45.414;11.084;2023-08-21T02:25:36;25.40;70.70
42097;DHT22;27754;45.414;11.084;2023-08-21T02:28:03;25.30;71.10
42097;DHT22;27754;45.414;11.084;2023-08-21T02:30:31;25.30;71.50
42097;DHT22;27754;45.414;11.084;2023-08-21T02:32:58;25.30;71.90
42097;DHT22;27754;45.414;11.084;2023-08-21T02:35:25;25.30;72.00
42097;DHT22;27754;45.414;11.084;2023-08-21T02:37:52;25.30;71.90
42097;DHT22;27754;45.414;11.084;2023-08-21T02:40:19;25.30;71.50
42097;DHT22;27754;45.414;11.084;2023-08-21T02:42:46;25.30;71.80
42097;DHT22;27754;45.414;11.084;2023-08-21T02:45:13;25.20;71.40
42097;DHT22;27754;45.414;11.084;2023-08-21T02:47:41;25.30;71.30
42097;DHT22;27754;45.414;11.084;2023-08-21T02:50:09;25.30;71.20
42097;DHT22;27754;45.414;11.084;2023-08-21T02:52:37;25.30;71.20
42097;DHT22;27754;45.414;11.084;2023-08-21T02:55:05;25.20;71.50
42097;DHT22;27754;45.414;11.084;2023-08-21T02:57:32;25.10;71.50
42097;DHT22;27754;45.414;11.084;2023-08-21T02:59:59;25.10;71.70
42097;DHT22;27754;45.414;11.084;2023-08-21T03:02:26;25.20;71.90
42097;DHT22;27754;45.414;11.084;2023-08-21T03:04:54;25.20;71.60
42097;DHT22;27754;45.414;11.084;2023-08-21T03:07:21;25.20;72.00
42097;DHT22;27754;45.414;11.084;2023-08-21T03:09:48;25.10;71.90
42097;DHT22;27754;45.414;11.084;2023-08-21T03:12:15;25.10;72.00
42097;DHT22;27754;45.414;11.084;2023-08-21T03:14:43;25.20;71.50
42097;DHT22;27754;45.414;11.084;2023-08-21T03:17:10;25.20;71.30
42097;DHT22;27754;45.414;11.084;2023-08-21T03:19:37;25.20;71.10
42097;DHT22;27754;45.414;11.084;2023-08-21T03:22:04;25.30;71.00
42097;DHT22;27754;45.414;11.084;2023-08-21T03:24:32;25.20;71.10
42097;DHT22;27754;45.414;11.084;2023-08-21T03:27:01;25.10;72.10
42097;DHT22;27754;45.414;11.084;2023-08-21T03:29:28;25.10;71.30
42097;DHT22;27754;45.414;11.084;2023-08-21T03:31:57;25.20;71.00
42097;DHT22;27754;45.414;11.084;2023-08-21T03:34:25;25.20;70.70
42097;DHT22;27754;45.414;11.084;2023-08-21T03:36:56;25.30;70.40
42097;DHT22;27754;45.414;11.084;2023-08-21T03:39:23;25.30;70.20
42097;DHT22;27754;45.414;11.084;2023-08-21T03:41:51;25.20;70.30
42097;DHT22;27754;45.414;11.084;2023-08-21T03:44:18;25.20;70.50
42097;DHT22;27754;45.414;11.084;2023-08-21T03:46:46;25.20;70.50
42097;DHT22;27754;45.414;11.084;2023-08-21T03:49:14;25.10;71.10
42097;DHT22;27754;45.414;11.084;2023-08-21T03:51:41;24.80;72.50
42097;DHT22;27754;45.414;11.084;2023-08-21T03:54:09;24.60;73.50
42097;DHT22;27754;45.414;11.084;2023-08-21T03:56:37;24.50;73.60
42097;DHT22;27754;45.414;11.084;2023-08-21T03:59:04;24.40;75.50
42097;DHT22;27754;45.414;11.084;2023-08-21T04:01:31;24.30;76.70
42097;DHT22;27754;45.414;11.084;2023-08-21T04:03:58;24.30;77.40
42097;DHT22;27754;45.414;11.084;2023-08-21T04:06:25;24.40;76.60
42097;DHT22;27754;45.414;11.084;2023-08-21T04:08:52;24.50;76.60
42097;DHT22;27754;45.414;11.084;2023-08-21T04:11:19;24.50;77.10
42097;DHT22;27754;45.414;11.084;2023-08-21T04:13:46;24.40;77.30
42097;DHT22;27754;45.414;11.084;2023-08-21T04:16:13;24.50;76.70
42097;DHT22;27754;45.414;11.084;2023-08-21T04:18:41;24.60;76.30
42097;DHT22;27754;45.414;11.084;2023-08-21T04:21:09;24.50;76.60
42097;DHT22;27754;45.414;11.084;2023-08-21T04:23:36;24.60;75.60
42097;DHT22;27754;45.414;11.084;2023-08-21T04:26:04;24.70;75.80
42097;DHT22;27754;45.414;11.084;2023-08-21T04:28:32;24.70;76.40
42097;DHT22;27754;45.414;11.084;2023-08-21T04:31:04;24.70;75.60
42097;DHT22;27754;45.414;11.084;2023-08-21T04:33:34;24.70;75.10
42097;DHT22;27754;45.414;11.084;2023-08-21T04:36:02;24.70;74.50
42097;DHT22;27754;45.414;11.084;2023-08-21T04:38:29;24.70;75.40
42097;DHT22;27754;45.414;11.084;2023-08-21T04:40:56;24.60;75.70
42097;DHT22;27754;45.414;11.084;2023-08-21T04:43:23;24.50;75.50
42097;DHT22;27754;45.414;11.084;2023-08-21T04:45:52;24.50;76.60
42097;DHT22;27754;45.414;11.084;2023-08-21T04:48:24;24.20;77.60
42097;DHT22;27754;45.414;11.084;2023-08-21T04:50:51;24.10;78.20
42097;DHT22;27754;45.414;11.084;2023-08-21T04:53:18;24.30;76.70
42097;DHT22;27754;45.414;11.084;2023-08-21T04:55:46;24.50;74.60
42097;DHT22;27754;45.414;11.084;2023-08-21T04:58:13;24.80;73.80
42097;DHT22;27754;45.414;11.084;2023-08-21T05:00:41;24.90;73.20
42097;DHT22;27754;45.414;11.084;2023-08-21T05:03:10;25.00;73.30
42097;DHT22;27754;45.414;11.084;2023-08-21T05:05:38;25.10;72.00
42097;DHT22;27754;45.414;11.084;2023-08-21T05:08:06;25.40;70.80
42097;DHT22;27754;45.414;11.084;2023-08-21T05:10:33;25.60;70.30
42097;DHT22;27754;45.414;11.084;2023-08-21T05:13:01;25.70;69.80
42097;DHT22;27754;45.414;11.084;2023-08-21T05:15:28;25.80;69.60
42097;DHT22;27754;45.414;11.084;2023-08-21T05:17:55;25.80;69.80
42097;DHT22;27754;45.414;11.084;2023-08-21T05:20:23;25.90;70.00
42097;DHT22;27754;45.414;11.084;2023-08-21T05:22:50;25.90;70.10
42097;DHT22;27754;45.414;11.084;2023-08-21T05:25:18;25.80;70.20
42097;DHT22;27754;45.414;11.084;2023-08-21T05:27:45;25.80;70.80
42097;DHT22;27754;45.414;11.084;2023-08-21T05:30:12;25.80;70.70
42097;DHT22;27754;45.414;11.084;2023-08-21T05:32:40;25.80;71.10
42097;DHT22;27754;45.414;11.084;2023-08-21T05:35:08;25.80;71.60
42097;DHT22;27754;45.414;11.084;2023-08-21T05:37:35;25.90;70.50
42097;DHT22;27754;45.414;11.084;2023-08-21T05:40:03;26.10;70.80
42097;DHT22;27754;45.414;11.084;2023-08-21T05:42:30;26.40;69.80
42097;DHT22;27754;45.414;11.084;2023-08-21T05:44:57;26.80;69.20
42097;DHT22;27754;45.414;11.084;2023-08-21T05:47:27;27.00;68.10
42097;DHT22;27754;45.414;11.084;2023-08-21T05:49:54;27.30;67.70
42097;DHT22;27754;45.414;11.084;2023-08-21T05:52:22;27.40;67.70
42097;DHT22;27754;45.414;11.084;2023-08-21T05:54:51;27.70;67.30
42097;DHT22;27754;45.414;11.084;2023-08-21T05:57:19;27.80;67.50
42097;DHT22;27754;45.414;11.084;2023-08-21T05:59:46;28.00;67.10
42097;DHT22;27754;45.414;11.084;2023-08-21T06:02:14;28.30;66.60
42097;DHT22;27754;45.414;11.084;2023-08-21T06:04:42;28.40;66.30
42097;DHT22;27754;45.414;11.084;2023-08-21T06:07:09;28.50;65.10
42097;DHT22;27754;45.414;11.084;2023-08-21T06:09:37;28.80;65.30
42097;DHT22;27754;45.414;11.084;2023-08-21T06:12:07;28.90;64.80
42097;DHT22;27754;45.414;11.084;2023-08-21T06:14:37;29.10;64.40
42097;DHT22;27754;45.414;11.084;2023-08-21T06:17:05;29.30;63.30
42097;DHT22;27754;45.414;11.084;2023-08-21T06:19:33;29.40;63.50
42097;DHT22;27754;45.414;11.084;2023-08-21T06:22:00;29.60;63.30
42097;DHT22;27754;45.414;11.084;2023-08-21T06:24:27;29.60;64.30
42097;DHT22;27754;45.414;11.084;2023-08-21T06:27:00;29.80;62.40
42097;DHT22;27754;45.414;11.084;2023-08-21T06:29:27;30.10;62.10
42097;DHT22;27754;45.414;11.084;2023-08-21T06:31:55;30.20;62.70
42097;DHT22;27754;45.414;11.084;2023-08-21T06:34:23;30.10;62.70
42097;DHT22;27754;45.414;11.084;2023-08-21T06:36:51;30.30;62.50
42097;DHT22;27754;45.414;11.084;2023-08-21T06:39:18;30.50;62.30
42097;DHT22;27754;45.414;11.084;2023-08-21T06:41:45;30.60;61.90
42097;DHT22;27754;45.414;11.084;2023-08-21T06:44:17;30.80;60.90
42097;DHT22;27754;45.414;11.084;2023-08-21T06:46:44;30.70;60.70
42097;DHT22;27754;45.414;11.084;2023-08-21T06:49:11;31.00;61.40
42097;DHT22;27754;45.414;11.084;2023-08-21T06:51:38;31.20;60.70
42097;DHT22;27754;45.414;11.084;2023-08-21T06:54:05;31.30;60.70
42097;DHT22;27754;45.414;11.084;2023-08-21T06:56:32;31.40;59.50
42097;DHT22;27754;45.414;11.084;2023-08-21T06:58:59;30.90;59.90
42097;DHT22;27754;45.414;11.084;2023-08-21T07:01:26;30.70;62.00
42097;DHT22;27754;45.414;11.084;2023-08-21T07:03:54;30.70;62.10
42097;DHT22;27754;45.414;11.084;2023-08-21T07:06:21;30.70;61.00
42097;DHT22;27754;45.414;11.084;2023-08-21T07:08:48;30.80;61.00
42097;DHT22;27754;45.414;11.084;2023-08-21T07:11:15;30.90;60.50
42097;DHT22;27754;45.414;11.084;2023-08-21T07:13:43;31.00;60.10
42097;DHT22;27754;45.414;11.084;2023-08-21T07:16:11;31.00;58.90
42097;DHT22;27754;45.414;11.084;2023-08-21T07:18:38;31.10;58.20
42097;DHT22;27754;45.414;11.084;2023-08-21T07:21:05;31.20;58.00
42097;DHT22;27754;45.414;11.084;2023-08-21T07:23:52;31.30;57.20
42097;DHT22;27754;45.414;11.084;2023-08-21T07:26:19;31.40;56.40
42097;DHT22;27754;45.414;11.084;2023-08-21T07:28:46;31.60;56.90
42097;DHT22;27754;45.414;11.084;2023-08-21T07:31:13;31.80;57.60
42097;DHT22;27754;45.414;11.084;2023-08-21T07:33:40;31.80;58.30
42097;DHT22;27754;45.414;11.084;2023-08-21T07:36:07;31.80;56.90
42097;DHT22;27754;45.414;11.084;2023-08-21T07:38:34;31.90;57.20
42097;DHT22;27754;45.414;11.084;2023-08-21T07:41:08;31.90;56.90
42097;DHT22;27754;45.414;11.084;2023-08-21T07:43:40;32.10;57.00
42097;DHT22;27754;45.414;11.084;2023-08-21T07:46:08;32.20;56.50
42097;DHT22;27754;45.414;11.084;2023-08-21T07:48:42;32.10;57.00
42097;DHT22;27754;45.414;11.084;2023-08-21T07:51:09;32.30;56.00
42097;DHT22;27754;45.414;11.084;2023-08-21T07:53:37;32.30;55.20
42097;DHT22;27754;45.414;11.084;2023-08-21T07:56:05;32.40;56.10
42097;DHT22;27754;45.414;11.084;2023-08-21T07:58:33;32.70;55.70
42097;DHT22;27754;45.414;11.084;2023-08-21T08:01:00;32.80;55.00
42097;DHT22;27754;45.414;11.084;2023-08-21T08:03:28;32.80;55.10
42097;DHT22;27754;45.414;11.084;2023-08-21T08:05:55;32.90;55.60
42097;DHT22;27754;45.414;11.084;2023-08-21T08:08:23;33.00;55.00
42097;DHT22;27754;45.414;11.084;2023-08-21T08:10:50;33.00;53.90
42097;DHT22;27754;45.414;11.084;2023-08-21T08:13:17;33.10;53.30
42097;DHT22;27754;45.414;11.084;2023-08-21T08:15:44;33.10;52.10
42097;DHT22;27754;45.414;11.084;2023-08-21T08:18:12;33.10;53.00
42097;DHT22;27754;45.414;11.084;2023-08-21T08:20:40;33.20;53.50
42097;DHT22;27754;45.414;11.084;2023-08-21T08:23:07;33.40;54.50
42097;DHT22;27754;45.414;11.084;2023-08-21T08:25:34;33.70;51.30
42097;DHT22;27754;45.414;11.084;2023-08-21T08:28:01;33.70;51.60
42097;DHT22;27754;45.414;11.084;2023-08-21T08:30:28;33.60;50.30
42097;DHT22;27754;45.414;11.084;2023-08-21T08:32:56;33.60;50.90
42097;DHT22;27754;45.414;11.084;2023-08-21T08:35:23;33.80;51.20
42097;DHT22;27754;45.414;11.084;2023-08-21T08:37:50;34.00;49.40
42097;DHT22;27754;45.414;11.084;2023-08-21T08:40:17;34.30;49.60
42097;DHT22;27754;45.414;11.084;2023-08-21T08:42:44;34.50;48.80
42097;DHT22;27754;45.414;11.084;2023-08-21T08:45:13;34.40;48.80
42097;DHT22;27754;45.414;11.084;2023-08-21T08:47:41;34.60;48.60
42097;DHT22;27754;45.414;11.084;2023-08-21T08:50:09;34.10;48.30
42097;DHT22;27754;45.414;11.084;2023-08-21T08:52:38;33.90;50.00
42097;DHT22;27754;45.414;11.084;2023-08-21T08:55:07;33.80;50.30
42097;DHT22;27754;45.414;11.084;2023-08-21T08:57:34;33.80;51.20
42097;DHT22;27754;45.414;11.084;2023-08-21T09:00:02;33.80;49.30
42097;DHT22;27754;45.414;11.084;2023-08-21T09:02:31;33.80;51.50
42097;DHT22;27754;45.414;11.084;2023-08-21T09:04:58;33.70;49.60
42097;DHT22;27754;45.414;11.084;2023-08-21T09:07:25;33.60;51.10
42097;DHT22;27754;45.414;11.084;2023-08-21T09:09:52;33.70;51.30
42097;DHT22;27754;45.414;11.084;2023-08-21T09:12:20;33.40;50.50
42097;DHT22;27754;45.414;11.084;2023-08-21T09:14:47;33.60;50.70
42097;DHT22;27754;45.414;11.084;2023-08-21T09:17:15;33.70;50.40
42097;DHT22;27754;45.414;11.084;2023-08-21T09:19:43;33.70;52.30
42097;DHT22;27754;45.414;11.084;2023-08-21T09:22:15;33.90;51.00
42097;DHT22;27754;45.414;11.084;2023-08-21T09:25:01;33.90;51.20
42097;DHT22;27754;45.414;11.084;2023-08-21T09:27:32;34.00;51.20
42097;DHT22;27754;45.414;11.084;2023-08-21T09:30:00;34.00;50.80
42097;DHT22;27754;45.414;11.084;2023-08-21T09:32:28;34.10;51.60
42097;DHT22;27754;45.414;11.084;2023-08-21T09:34:55;34.10;52.20
42097;DHT22;27754;45.414;11.084;2023-08-21T09:37:28;34.20;51.10
42097;DHT22;27754;45.414;11.084;2023-08-21T09:40:01;34.30;50.80
42097;DHT22;27754;45.414;11.084;2023-08-21T09:42:31;34.30;49.90
42097;DHT22;27754;45.414;11.084;2023-08-21T09:45:00;34.00;50.60
42097;DHT22;27754;45.414;11.084;2023-08-21T09:47:30;34.20;49.60
42097;DHT22;27754;45.414;11.084;2023-08-21T09:49:59;34.20;50.60
42097;DHT22;27754;45.414;11.084;2023-08-21T09:52:26;34.10;51.30
42097;DHT22;27754;45.414;11.084;2023-08-21T09:54:54;34.10;50.60
42097;DHT22;27754;45.414;11.084;2023-08-21T09:57:23;34.20;50.30
42097;DHT22;27754;45.414;11.084;2023-08-21T09:59:53;34.10;51.80
42097;DHT22;27754;45.414;11.084;2023-08-21T10:02:21;34.20;50.80
42097;DHT22;27754;45.414;11.084;2023-08-21T10:04:49;34.20;50.70
42097;DHT22;27754;45.414;11.084;2023-08-21T10:07:20;34.20;51.00
42097;DHT22;27754;45.414;11.084;2023-08-21T10:09:49;34.30;50.00
42097;DHT22;27754;45.414;11.084;2023-08-21T10:12:16;34.20;50.10
42097;DHT22;27754;45.414;11.084;2023-08-21T10:14:44;34.30;49.50
42097;DHT22;27754;45.414;11.084;2023-08-21T10:17:11;34.40;49.50
42097;DHT22;27754;45.414;11.084;2023-08-21T10:19:38;33.80;50.50
42097;DHT22;27754;45.414;11.084;2023-08-21T10:22:05;33.80;53.10
42097;DHT22;27754;45.414;11.084;2023-08-21T10:24:36;34.00;51.40
42097;DHT22;27754;45.414;11.084;2023-08-21T10:27:07;33.90;51.20
42097;DHT22;27754;45.414;11.084;2023-08-21T10:29:35;34.00;52.30
42097;DHT22;27754;45.414;11.084;2023-08-21T10:32:05;34.20;50.00
42097;DHT22;27754;45.414;11.084;2023-08-21T10:34:35;34.20;50.00
42097;DHT22;27754;45.414;11.084;2023-08-21T10:39:31;34.40;49.60
42097;DHT22;27754;45.414;11.084;2023-08-21T10:44:52;34.70;50.30
42097;DHT22;27754;45.414;11.084;2023-08-21T10:49:55;34.90;50.10
42097;DHT22;27754;45.414;11.084;2023-08-21T10:52:40;34.90;49.60
42097;DHT22;27754;45.414;11.084;2023-08-21T10:55:09;34.90;49.80
42097;DHT22;27754;45.414;11.084;2023-08-21T10:57:37;34.90;49.40
42097;DHT22;27754;45.414;11.084;2023-08-21T11:00:06;35.00;49.50
42097;DHT22;27754;45.414;11.084;2023-08-21T11:02:39;35.00;49.50
42097;DHT22;27754;45.414;11.084;2023-08-21T11:05:08;35.00;49.90
42097;DHT22;27754;45.414;11.084;2023-08-21T11:07:43;34.80;49.80
42097;DHT22;27754;45.414;11.084;2023-08-21T11:10:16;34.80;50.10
42097;DHT22;27754;45.414;11.084;2023-08-21T11:12:54;34.80;49.60
42097;DHT22;27754;45.414;11.084;2023-08-21T11:15:27;34.90;49.80
42097;DHT22;27754;45.414;11.084;2023-08-21T11:17:58;34.90;50.00
42097;DHT22;27754;45.414;11.084;2023-08-21T11:22:58;34.80;50.50
42097;DHT22;27754;45.414;11.084;2023-08-21T11:25:25;34.70;49.80
42097;DHT22;27754;45.414;11.084;2023-08-21T11:27:53;34.70;50.10
42097;DHT22;27754;45.414;11.084;2023-08-21T11:30:23;34.80;50.40
42097;DHT22;27754;45.414;11.084;2023-08-21T11:33:12;34.80;48.70
42097;DHT22;27754;45.414;11.084;2023-08-21T11:35:41;34.70;49.50
42097;DHT22;27754;45.414;11.084;2023-08-21T11:38:19;34.80;50.20
42097;DHT22;27754;45.414;11.084;2023-08-21T11:40:59;35.00;50.10
42097;DHT22;27754;45.414;11.084;2023-08-21T11:43:40;35.10;48.70
42097;DHT22;27754;45.414;11.084;2023-08-21T11:46:09;35.10;49.40
42097;DHT22;27754;45.414;11.084;2023-08-21T11:48:38;35.10;50.00
42097;DHT22;27754;45.414;11.084;2023-08-21T11:51:08;34.90;50.60
42097;DHT22;27754;45.414;11.084;2023-08-21T11:53:37;34.90;50.10
42097;DHT22;27754;45.414;11.084;2023-08-21T11:56:15;34.90;49.00
42097;DHT22;27754;45.414;11.084;2023-08-21T11:58:45;34.90;49.30
42097;DHT22;27754;45.414;11.084;2023-08-21T12:01:22;34.90;50.50
42097;DHT22;27754;45.414;11.084;2023-08-21T12:03:49;35.00;50.40
42097;DHT22;27754;45.414;11.084;2023-08-21T12:06:23;35.20;50.10
42097;DHT22;27754;45.414;11.084;2023-08-21T12:08:52;35.30;50.10
42097;DHT22;27754;45.414;11.084;2023-08-21T12:11:20;35.30;49.60
42097;DHT22;27754;45.414;11.084;2023-08-21T12:13:47;35.30;50.20
42097;DHT22;27754;45.414;11.084;2023-08-21T12:16:14;35.30;50.70
42097;DHT22;27754;45.414;11.084;2023-08-21T12:18:41;35.30;50.40
42097;DHT22;27754;45.414;11.084;2023-08-21T12:21:08;35.40;49.70
42097;DHT22;27754;45.414;11.084;2023-08-21T12:23:35;35.40;49.90
42097;DHT22;27754;45.414;11.084;2023-08-21T12:26:03;35.40;50.00
42097;DHT22;27754;45.414;11.084;2023-08-21T12:28:29;35.50;49.80
42097;DHT22;27754;45.414;11.084;2023-08-21T12:30:57;35.50;49.70
42097;DHT22;27754;45.414;11.084;2023-08-21T12:33:24;35.70;49.50
42097;DHT22;27754;45.414;11.084;2023-08-21T12:35:51;35.70;49.40
42097;DHT22;27754;45.414;11.084;2023-08-21T12:38:18;35.30;50.10
42097;DHT22;27754;45.414;11.084;2023-08-21T12:40:47;35.40;50.60
42097;DHT22;27754;45.414;11.084;2023-08-21T12:43:14;35.40;49.70
42097;DHT22;27754;45.414;11.084;2023-08-21T12:45:41;35.10;50.70
42097;DHT22;27754;45.414;11.084;2023-08-21T12:48:08;35.00;50.60
42097;DHT22;27754;45.414;11.084;2023-08-21T12:50:35;35.00;50.80
42097;DHT22;27754;45.414;11.084;2023-08-21T12:53:02;34.90;51.20
42097;DHT22;27754;45.414;11.084;2023-08-21T12:55:30;35.20;50.10
42097;DHT22;27754;45.414;11.084;2023-08-21T12:57:57;35.40;49.40
42097;DHT22;27754;45.414;11.084;2023-08-21T13:00:24;35.40;49.10
42097;DHT22;27754;45.414;11.084;2023-08-21T13:02:51;35.40;50.00
42097;DHT22;27754;45.414;11.084;2023-08-21T13:05:18;35.30;50.00
42097;DHT22;27754;45.414;11.084;2023-08-21T13:07:45;35.30;49.80
42097;DHT22;27754;45.414;11.084;2023-08-21T13:10:13;35.40;49.90
42097;DHT22;27754;45.414;11.084;2023-08-21T13:12:40;34.90;50.70
42097;DHT22;27754;45.414;11.084;2023-08-21T13:15:08;35.00;51.00
42097;DHT22;27754;45.414;11.084;2023-08-21T13:17:35;35.40;50.00
42097;DHT22;27754;45.414;11.084;2023-08-21T13:20:03;35.50;50.10
42097;DHT22;27754;45.414;11.084;2023-08-21T13:22:47;35.50;50.00
42097;DHT22;27754;45.414;11.084;2023-08-21T13:25:17;35.70;50.10
42097;DHT22;27754;45.414;11.084;2023-08-21T13:27:44;35.60;49.70
42097;DHT22;27754;45.414;11.084;2023-08-21T13:30:12;35.60;49.30
42097;DHT22;27754;45.414;11.084;2023-08-21T13:32:39;35.80;49.70
42097;DHT22;27754;45.414;11.084;2023-08-21T13:35:06;35.80;48.90
42097;DHT22;27754;45.414;11.084;2023-08-21T13:37:36;35.60;48.90
42097;DHT22;27754;45.414;11.084;2023-08-21T13:40:04;35.50;50.10
42097;DHT22;27754;45.414;11.084;2023-08-21T13:42:44;35.60;49.40
42097;DHT22;27754;45.414;11.084;2023-08-21T13:45:13;35.50;48.70
42097;DHT22;27754;45.414;11.084;2023-08-21T13:47:42;35.20;49.30
42097;DHT22;27754;45.414;11.084;2023-08-21T13:50:11;35.30;49.10
42097;DHT22;27754;45.414;11.084;2023-08-21T13:52:38;35.30;49.90
42097;DHT22;27754;45.414;11.084;2023-08-21T13:55:07;35.30;49.90
42097;DHT22;27754;45.414;11.084;2023-08-21T13:57:35;35.40;49.90
42097;DHT22;27754;45.414;11.084;2023-08-21T14:00:07;35.30;49.70
42097;DHT22;27754;45.414;11.084;2023-08-21T14:02:35;35.30;50.10
42097;DHT22;27754;45.414;11.084;2023-08-21T14:05:02;35.70;48.60
42097;DHT22;27754;45.414;11.084;2023-08-21T14:07:33;35.50;49.00
42097;DHT22;27754;45.414;11.084;2023-08-21T14:10:01;35.30;49.10
42097;DHT22;27754;45.414;11.084;2023-08-21T14:12:29;35.20;50.00
42097;DHT22;27754;45.414;11.084;2023-08-21T14:14:58;35.20;50.20
42097;DHT22;27754;45.414;11.084;2023-08-21T14:17:26;35.30;50.40
42097;DHT22;27754;45.414;11.084;2023-08-21T14:19:53;35.50;49.80
42097;DHT22;27754;45.414;11.084;2023-08-21T14:22:20;35.60;49.40
42097;DHT22;27754;45.414;11.084;2023-08-21T14:24:47;35.70;49.60
42097;DHT22;27754;45.414;11.084;2023-08-21T14:27:15;35.70;49.20
42097;DHT22;27754;45.414;11.084;2023-08-21T14:29:43;35.70;49.40
42097;DHT22;27754;45.414;11.084;2023-08-21T14:32:11;35.80;49.40
42097;DHT22;27754;45.414;11.084;2023-08-21T14:34:38;35.90;48.50
42097;DHT22;27754;45.414;11.084;2023-08-21T14:37:05;35.90;49.20
42097;DHT22;27754;45.414;11.084;2023-08-21T14:39:33;35.80;48.70
42097;DHT22;27754;45.414;11.084;2023-08-21T14:42:00;35.70;48.70
42097;DHT22;27754;45.414;11.084;2023-08-21T14:44:28;35.70;48.70
42097;DHT22;27754;45.414;11.084;2023-08-21T14:46:55;35.80;48.90
42097;DHT22;27754;45.414;11.084;2023-08-21T14:49:28;35.80;49.10
42097;DHT22;27754;45.414;11.084;2023-08-21T14:51:55;35.90;48.70
42097;DHT22;27754;45.414;11.084;2023-08-21T14:54:22;35.80;49.30
42097;DHT22;27754;45.414;11.084;2023-08-21T14:56:49;35.70;49.30
42097;DHT22;27754;45.414;11.084;2023-08-21T14:59:16;35.70;49.80
42097;DHT22;27754;45.414;11.084;2023-08-21T15:01:43;35.70;49.60
42097;DHT22;27754;45.414;11.084;2023-08-21T15:04:10;35.80;49.60
42097;DHT22;27754;45.414;11.084;2023-08-21T15:06:38;35.70;49.00
42097;DHT22;27754;45.414;11.084;2023-08-21T15:09:08;35.40;49.80
42097;DHT22;27754;45.414;11.084;2023-08-21T15:11:35;35.40;50.00
42097;DHT22;27754;45.414;11.084;2023-08-21T15:14:03;35.30;50.60
42097;DHT22;27754;45.414;11.084;2023-08-21T15:16:30;35.30;50.70
42097;DHT22;27754;45.414;11.084;2023-08-21T15:18:58;35.50;49.30
42097;DHT22;27754;45.414;11.084;2023-08-21T15:21:26;35.20;50.20
42097;DHT22;27754;45.414;11.084;2023-08-21T15:23:52;35.10;50.50
42097;DHT22;27754;45.414;11.084;2023-08-21T15:26:20;34.90;50.50
42097;DHT22;27754;45.414;11.084;2023-08-21T15:28:48;34.90;50.10
42097;DHT22;27754;45.414;11.084;2023-08-21T15:31:19;35.10;50.90
42097;DHT22;27754;45.414;11.084;2023-08-21T15:33:46;34.90;50.40
42097;DHT22;27754;45.414;11.084;2023-08-21T15:36:16;34.80;50.60